Briefing drone pour Saint-peray

Rechercher une autre localisation

Conditions de vol :


Nous sommes le : Mercredi 25 mai 2022
Il est 13:03 UTC (15:03 LT)

Lever de soleil : 03:35 UTC (05:35 LT)
Coucher de soleil : 19:39 UTC (21:39 LT)

Météo

L'essentiel des conditions de vol

VIGILANCE MÉTÉO FRANCE - Ardèche (07)
Pas de vigilances particulieres
METAR de LFLU
LFLU 251300Z AUTO 36017KT 330V030 9999 FEW064 24/08 Q1016

Date d'émission: 25/05/2022
Heure d'émission: 13:00 UTC
Vent: 360° (variable du 330° au 030°) pour 17 KT (31 km/h)
Visibilité horizontale: > 10 km
Plafond :
- Peu de nuages à 6400ft (1951m)
Température: 24 °C
Point de rosée: 8 °C
Humidité: 36%
Pression (QNH): 1016 hPa
Prévision 24h pour Valence (3 km)
Vent : 12° pour 8 KT (29 km/h)
Temperature Maxi: 20 °C
Temperature Min: 20 °C
Humidité : 47%
Condition : Partiellement nuageux



Warning: count(): Parameter must be an array or an object that implements Countable in /homepages/6/d509196549/htdocs/droneoxygene/briefing.php on line 743
WEBCAM POUR SAINT-PERAY

Réglementation

Voler en sécurité

CARTES AERONAUTIQUE 1/500.000
CARTES VAC (LFLU)
SUP AIP




Chargement des AIP...
NOTAM (SAINT-PERAY + Terrain à proximité / FIR )




Chargement des NOTAMS...
CONTACT PREFECTURE 07


Avertissement : Les données mises à disposition sont indicatives. Oxygène Drone ne pourra être tenu responsable de dégâts causés aux biens et aux personnes.